Tiempo atmosférico en la estación meteorológica de Liceras, Soria (1150 m.)



Fecha
DESCASC
Temp. máxima en grados centígrados (hora)
DESCASC
Temp. mínima en grados centígrados (hora)
DESCASC
Temp. media en grados centígrados
DESCASC
Racha de viento máxima en m/sg (hora)
DESCASC
Velocidad máxima media en intervalos de 10 minutos(hora)
DESCASC
Precipitaciones diarias en mm
DESCASC
Precipitaciones de 00:00 a 06:00 en mm
DESCASC
Precipitaciones de 06:00 a 12:00 en mm
DESCASC
Precipitaciones de 12:00 a 18:00 en mm
DESCASC
Precipitaciones de 18:00 a 24:00 en mm
DESCASC
17-09-2020 24.4 (16:10) 14.5 (23:10) 19.4 15.56 (14:40) 7.78 (14:30) 3.2 0 0 0 3.2
15-09-2020 25.5 (17:10) 14 (05:10) 19.8 13.89 (00:50) 9.17 (00:50) 1 0.8 0.2 0 0
14-09-2020 25.8 (13:30) 16.9 (06:40) 21.3 14.17 (01:40) 7.22 (03:40) 0 0 0 0 0
13-09-2020 29 (15:00) 16 (00:00) 22.5 11.67 (04:00) 7.5 (04:00) 0 0 0 0 0
12-09-2020 28.8 (18:20) 10.6 (07:40) 19.7 10 (22:00) 6.39 (22:00) 0 0 0 0 0
11-09-2020 27 (18:30) 11 (00:00) 19 10.28 (14:20) 5 (14:40) 0 0 0 0 0
10-09-2020 26.5 (18:10) 9.9 (00:00) 18.2 9.72 (16:50) 5 (10:40) 0 0 0 0 0
09-09-2020 26.2 (18:10) 9.6 (07:20) 17.9 8.61 (01:00) 5.28 (00:50) 0 0 0 0 0
08-09-2020 23.3 (18:10) 6.4 (00:00) 14.8 11.11 (15:30) 6.39 (13:20) 0 0 0 0 0
07-09-2020 22.6 (19:00) 5.6 (07:10) 14.1 8.89 (19:40) 6.39 (20:20) 0 0 0 0 0
06-09-2020 27.4 (16:30) 12.6 (00:00) 20 10.28 (17:10) 7.22 (17:40) 0 0 0 0 0
05-09-2020 30.2 (17:50) 13.7 (00:00) 22 9.72 (20:30) 6.39 (20:30) 0 0 0 0 0
04-09-2020 30.7 (17:30) 14.9 (00:00) 22.8 8.61 (03:40) 5 (03:40) 0 0 0 0 0
03-09-2020 29.1 (17:50) 8.9 (00:00) 19 6.11 (17:20) 3.61 (17:20) 0 0 0 0 0
02-09-2020 25.2 (18:10) 8.5 (00:00) 16.9 8.33 (05:00) 5.56 (05:20) 0 0 0 0 0
01-09-2020 24.7 (16:50) 9.6 (00:00) 17.2 8.33 (16:50) 5 (23:10) 0 0 0 0 0
31-08-2020 22.4 (17:10) 3.5 (00:00) 12.9 8.06 (15:40) 5 (18:30) 0 0 0 0 0
30-08-2020 17.2 (16:20) 5.2 (00:00) 11.2 9.17 (16:10) 6.11 (01:10) 0 0 0 0 0
29-08-2020 17.7 (17:20) 6.6 (00:00) 12.2 12.22 (17:30) 8.06 (17:30) 1.8 0 0 1.2 0.6
28-08-2020 26 (17:00) 13.1 (00:00) 19.6 13.33 (13:00) 9.44 (19:10) 0 0 0 0 0
27-08-2020 31.2 (17:40) 15.7 (00:00) 23.5 10.28 (15:30) 6.67 (18:00) 0 0 0 0 0
26-08-2020 32.6 (18:10) 14 (00:00) 23.3 10.28 (14:50) 5.83 (15:50) 0 0 0 0 0
25-08-2020 32.2 (18:40) 14.4 (00:00) 23.3 11.11 (16:30) 6.11 (15:10) 0 0 0 0 0
24-08-2020 28.9 (18:00) 10.6 (06:50) 19.8 8.89 (18:40) 5.28 (06:00) 0 0 0 0 0
23-08-2020 28.2 (18:20) 9.3 (00:00) 18.8 7.78 (14:20) 3.89 (19:10) 0 0 0 0 0
22-08-2020 28 (17:50) 12.7 (00:00) 20.3 8.89 (16:20) 5.28 (18:10) 0 0 0 0 0
21-08-2020 29.9 (15:40) 13.1 (06:40) 21.5 14.72 (18:20) 6.94 (17:30) 13 0 0 0.4 12.6

Gráficas

Temp. máximas Temp. mínimas Temp. medias Precipitaciones Rachas de viento máximas Velocidades máximas media en intervalos de 10 minutos

Datos horarios

Fecha y hora oficial Temperatura (ºC) Velocidad del viento (km/h) Dirección del viento Racha (km/h) Dirección de racha Precipitación (mm) Presión (hPa) Tendencia (hPa) Humedad (%)
2020-09-19 23:00:00 12.7 14 Oeste 26 Oeste 0 -- -- 82
2020-09-19 22:00:00 12.5 10 Oeste 22 Oeste 0 -- -- 84
2020-09-19 21:00:00 13.5 15 Oeste 31 Oeste 0 -- -- 81
2020-09-19 20:00:00 14.7 9 Oeste 18 Oeste 0 -- -- 84
2020-09-19 19:00:00 15.2 9 Oeste 25 Oeste 0 -- -- 85
2020-09-19 18:00:00 13.9 14 Oeste 31 Oeste 2 -- -- 90
2020-09-19 17:00:00 15.2 15 Sudoeste 33 Oeste 0 -- -- 81
2020-09-19 16:00:00 14.1 15 Oeste 40 Oeste 0.4 -- -- 87
2020-09-19 15:00:00 14.7 28 Oeste 51 Oeste 0.6 -- -- 86
2020-09-19 14:00:00 13.4 27 Oeste 49 Oeste 2.2 -- -- 91
2020-09-19 13:00:00 16.1 33 Oeste 48 Oeste 0 -- -- 67
2020-09-19 12:00:00 16.4 29 Oeste 51 Oeste 0 -- -- 68
2020-09-19 11:00:00 15.4 23 Sudoeste 39 Sur 0 -- -- 74
2020-09-19 10:00:00 13.8 22 Sudoeste 35 Sudoeste 0 -- -- 82
2020-09-19 09:00:00 13.1 16 Sur 32 Sur 0 -- -- 83
2020-09-19 08:00:00 12.4 14 Sur 26 Sur 0.4 -- -- 85
2020-09-19 07:00:00 12 12 Sur 35 Sudoeste 0.2 -- -- 87
2020-09-19 06:00:00 12.4 10 Sur 26 Sudoeste 0 -- -- 82
2020-09-19 05:00:00 11.9 7 Sudeste 26 Sur 0 -- -- 87
2020-09-19 04:00:00 11.9 10 Sur 27 Sudeste 2.8 -- -- 92
2020-09-19 03:00:00 11.2 6 Nordeste 28 Noroeste 12.8 -- -- 95
2020-09-19 02:00:00 12.2 3 Noroeste 18 Sur 3.2 -- -- 91
2020-09-19 01:00:00 13 8 Sudoeste 23 Sudoeste 0.2 -- -- 84
2020-09-19 00:00:00 13.2 9 Sur 26 Sudoeste 0 -- -- 81
2020-09-18 23:00:00 12.9 6 Sudoeste 24 Sudeste 0 -- -- 79
2020-09-18 22:00:00 12.1 8 Sur 35 Sur 0 -- -- 81
2020-09-18 21:00:00 12.6 18 Sur 32 Sur 0 -- -- 78
2020-09-18 20:00:00 13.3 8 Sur 34 Sudoeste 0.8 -- -- 82
2020-09-18 19:00:00 16.2 10 Sudoeste 33 Sur 0 -- -- 70
2020-09-18 18:00:00 16.8 21 Sur 31 Sur 0 -- -- 70
2020-09-18 17:00:00 18 18 Sur 32 Sur 0 -- -- 66
2020-09-18 16:00:00 18.7 17 Sur 33 Sudoeste 0 -- -- 63
2020-09-18 15:00:00 17.7 19 Sudoeste 34 Sudoeste 0 -- -- 63
2020-09-18 14:00:00 18 16 Sur 40 Sudoeste 0 -- -- 65
2020-09-18 13:00:00 17.4 19 Sur 31 Sur 0 -- -- 67
2020-09-18 12:00:00 17.7 15 Sudoeste 37 Sur 0 -- -- 65
2020-09-18 11:00:00 16.9 22 Sur 43 Sur 0 -- -- 73
2020-09-18 10:00:00 15.4 16 Sur 35 Sur 0 -- -- 78
2020-09-18 09:00:00 15.1 15 Sur 29 Sur 0 -- -- 79
2020-09-18 08:00:00 11.7 4 Nordeste 33 Oeste 0 -- -- 90
2020-09-18 07:00:00 12.9 27 Oeste 42 Oeste 0 -- -- 82
2020-09-18 06:00:00 15.8 22 Sur 45 Sur 0 -- -- 81
2020-09-18 05:00:00 15.9 24 Sur 40 Sur 0.8 -- -- 83
2020-09-18 04:00:00 14.4 8 Sudeste 16 Sudeste 0.6 -- -- 92
2020-09-18 03:00:00 14.4 6 Sudeste 19 Sudeste 2 -- -- 93
2020-09-18 02:00:00 14.2 10 Sudeste 15 Este 0 -- -- 92
2020-09-18 01:00:00 14 2 Sudeste 23 Sudeste 5.8 -- -- 93
2020-09-18 00:00:00 14.8 7 Sudoeste 19 Oeste 2.2 -- -- 90
2020-09-17 23:00:00 14.7 7 Oeste 45 Oeste 1 -- -- 80
2020-09-17 22:00:00 18.5 10 Sudeste 30 Sudeste 0 -- -- 63
2020-09-17 21:00:00 19.3 21 Sudeste 40 Sur 0 -- -- 60
2020-09-17 20:00:00 20.1 13 Sudeste 27 Sudoeste 0 -- -- 59
2020-09-17 19:00:00 22.4 13 Sur 34 Sur 0 -- -- 53
2020-09-17 18:00:00 22.6 20 Sur 35 Sur 0 -- -- 51
2020-09-17 17:00:00 22.9 25 Sur 46 Sur 0 -- -- 46
2020-09-17 16:00:00 23.3 24 Sur 43 Sudoeste 0 -- -- 47
2020-09-17 15:00:00 23 27 Sur 56 Sur 0 -- -- 50
2020-09-17 14:00:00 23.2 21 Sur 39 Sur 0 -- -- 49
2020-09-17 13:00:00 21.9 22 Sur 38 Sudeste 0 -- -- 53
2020-09-17 12:00:00 21 16 Sudeste 30 Sudeste 0 -- -- 60
2020-09-17 11:00:00 16.8 11 Sudeste 18 Sudeste 0 -- -- 75
2020-09-17 10:00:00 17.2 12 Sudeste 17 Sudeste 0 -- -- 69
2020-09-17 09:00:00 16.9 7 Sur 16 Sur 0 -- -- 69
2020-09-17 08:00:00 16.7 10 Sudeste 14 Sudeste 0 -- -- 68
2020-09-17 07:00:00 17.5 5 Sudoeste 13 Sudeste 0 -- -- 64
2020-09-17 06:00:00 18.1 3 Este 27 Sudeste 0 -- -- 61
2020-09-17 05:00:00 17.1 9 Sudeste 15 Sudeste 0 -- -- 68
2020-09-17 04:00:00 16.5 3 Noroeste 13 Sudeste 0 -- -- 72
2020-09-17 03:00:00 18.2 10 Sudeste 15 Sudeste 0 -- -- 62
2020-09-17 02:00:00 17.9 9 Sudeste 19 Sur 0 -- -- 63
2020-09-17 01:00:00 18.1 11 Sudeste 32 Sudeste 0 -- -- 65
2020-09-17 00:00:00 19.4 26 Sudeste 36 Sudeste 0 -- -- 52
2020-09-16 23:00:00 21.7 15 Este 37 Sudeste 0 -- -- 46
2020-09-16 22:00:00 20.5 11 Sudeste 19 Sudeste 0 -- -- 52
2020-09-16 21:00:00 22.3 9 Sudeste 15 Sudeste 0 -- -- 45
2020-09-16 20:00:00 24.4 8 Sur 21 Sur 0 -- -- 38
2020-09-16 19:00:00 26.8 12 Sur 21 Sudoeste 0 -- -- 32
2020-09-16 18:00:00 28 4 Sur 28 Sur 0 -- -- 31
2020-09-16 17:00:00 27.2 14 Sur 31 Sudoeste 0 -- -- 32
2020-09-16 16:00:00 27.1 17 Sur 32 Sudeste 0 -- -- 33
2020-09-16 15:00:00 28.2 14 Sudoeste 33 Sudoeste 0 -- -- 30
2020-09-16 14:00:00 26.2 12 Sur 27 Sudeste 0 -- -- 34
2020-09-16 13:00:00 26.5 14 Sur 27 Sur 0 -- -- 35
2020-09-16 12:00:00 25.5 10 Sudeste 24 Sur 0 -- -- 39
2020-09-16 11:00:00 24.5 11 Sudeste 18 Este 0 -- -- 44
2020-09-16 10:00:00 21.6 8 Sudeste 12 Sudeste 0 -- -- 51
2020-09-16 09:00:00 15.7 7 Sudeste 15 Sudeste 0 -- -- 70
2020-09-16 08:00:00 12.5 9 Sudeste 12 Sudeste 0 -- -- 78
2020-09-16 07:00:00 13.1 8 Sudeste 14 Este 0 -- -- 77
2020-09-16 06:00:00 14.3 6 Sudeste 10 Sur 0 -- -- 69
2020-09-16 05:00:00 14.2 8 Sur 10 Sudeste 0 -- -- 69
2020-09-16 04:00:00 14.4 4 Sudeste 8 Sur 0 -- -- 67
2020-09-16 03:00:00 14.5 0 Calma 16 Sur 0 -- -- 68
2020-09-16 02:00:00 15.8 0 Calma 10 Sudeste 0 -- -- 61
2020-09-16 01:00:00 16.2 5 Sudeste 12 Sudeste 0 -- -- 60
2020-09-16 00:00:00 16.7 5 Sudeste 11 Sudeste 0 -- -- 60
2020-09-15 23:00:00 18.1 5 Sur 13 Sur 0 -- -- 55
2020-09-15 22:00:00 19.6 10 Sur 17 Sur 0 -- -- 52
2020-09-15 21:00:00 19.8 7 Sur 17 Sudoeste 0 -- -- 53
2020-09-15 20:00:00 22.4 11 Sudoeste 17 Sudoeste 0 -- -- 45
2020-09-15 19:00:00 24.1 6 Noroeste 18 Oeste 0 -- -- 43
2020-09-15 18:00:00 24.1 5 Oeste 15 Sudoeste 0 -- -- 43
2020-09-15 17:00:00 23.9 2 Norte 15 Noroeste 0 -- -- 45
2020-09-15 16:00:00 24.1 11 Oeste 22 Sudoeste 0 -- -- 44
2020-09-15 15:00:00 22.8 8 Oeste 31 Sudoeste 0 -- -- 49
2020-09-15 14:00:00 23.8 13 Sudoeste 27 Sudoeste 0 -- -- 46
2020-09-15 13:00:00 22.1 5 Oeste 17 Sur 0 -- -- 51
2020-09-15 12:00:00 23.6 8 Sur 21 Sudeste 0 -- -- 52
2020-09-15 11:00:00 21 10 Sur 23 Sudeste 0 -- -- 58
2020-09-15 10:00:00 18.9 15 Sur 22 Sur 0 -- -- 66
2020-09-15 09:00:00 15.8 13 Sur 30 Sudeste 0 -- -- 77
2020-09-15 08:00:00 15.7 14 Sudeste 23 Sudeste 0 -- -- 75
2020-09-15 07:00:00 14.7 11 Sudeste 18 Sudeste 0.2 -- -- 85
2020-09-15 06:00:00 14.1 10 Sudeste 22 Sudeste 0 -- -- 87
2020-09-15 05:00:00 14.2 17 Sudeste 26 Sur 0.8 -- -- 83
2020-09-15 04:00:00 14.8 6 Sudeste 15 Sudeste 0 -- -- 73
2020-09-15 03:00:00 15.2 8 Este 12 Este 0 -- -- 68
2020-09-15 02:00:00 15.8 2 Nordeste 32 Oeste 0 -- -- 67
2020-09-15 01:00:00 18.8 27 Oeste 50 Oeste 0 -- -- 56
2020-09-15 00:00:00 21.8 17 Sur 41 Sur 0 -- -- 42
2020-09-14 23:00:00 22.4 15 Sur 31 Sur 0 -- -- 38
2020-09-14 22:00:00 20.6 7 Sudeste 27 Sudeste 0 -- -- 41
2020-09-14 21:00:00 22.8 19 Sudeste 28 Sudeste 0 -- -- 37
2020-09-14 20:00:00 23.6 20 Sudeste 36 Sur 0 -- -- 36
2020-09-14 19:00:00 23.8 21 Sudeste 35 Sur 0 -- -- 39
2020-09-14 18:00:00 24.3 16 Sudeste 26 Sudeste 0 -- -- 39
2020-09-14 17:00:00 23.8 18 Sudeste 38 Sur 0 -- -- 42
2020-09-14 16:00:00 25.1 20 Sur 40 Sur 0 -- -- 37
2020-09-14 15:00:00 24.4 21 Sur 37 Sur 0 -- -- 35
2020-09-14 14:00:00 24.7 18 Sur 30 Sur 0 -- -- 36
2020-09-14 13:00:00 23.8 21 Sur 38 Sur 0 -- -- 38
2020-09-14 12:00:00 24.5 19 Sur 35 Sur 0 -- -- 36
2020-09-14 11:00:00 22.9 9 Este 37 Sur 0 -- -- 40
2020-09-14 10:00:00 22.3 10 Sudeste 41 Sudeste 0 -- -- 42
2020-09-14 09:00:00 19.9 14 Sur 30 Sur 0 -- -- 51
2020-09-14 08:00:00 17.8 17 Sur 33 Sudeste 0 -- -- 57
2020-09-14 07:00:00 18 9 Sudeste 33 Sudeste 0 -- -- 57
2020-09-14 06:00:00 18.1 12 Sudeste 26 Sudeste 0 -- -- 58
2020-09-14 05:00:00 18.3 15 Sudeste 38 Sudeste 0 -- -- 57
2020-09-14 04:00:00 19.2 19 Sudeste 42 Sur 0 -- -- 54
2020-09-14 03:00:00 19.9 17 Sur 39 Sur 0 -- -- 49
2020-09-14 02:00:00 21 25 Sur 51 Sudoeste 0 -- -- 43
2020-09-14 01:00:00 20.8 12 Sur 28 Sudeste 0 -- -- 41
2020-09-14 00:00:00 19.1 14 Sudeste 17 Sudeste 0 -- -- 43
2020-09-13 23:00:00 21.1 10 Sur 15 Sudeste 0 -- -- 38
2020-09-13 22:00:00 21.7 8 Sur 15 Sudeste 0 -- -- 36
2020-09-13 21:00:00 23.9 8 Sur 19 Sudeste 0 -- -- 32
2020-09-13 20:00:00 25.8 6 Sur 23 Sudoeste 0 -- -- 29
2020-09-13 19:00:00 27 17 Sur 37 Sur 0 -- -- 27
2020-09-13 18:00:00 26.7 17 Sur 36 Sur 0 -- -- 29
2020-09-13 17:00:00 27.5 18 Sur 32 Sur 0 -- -- 27
2020-09-13 16:00:00 28.2 19 Sur 33 Sur 0 -- -- 26
2020-09-13 15:00:00 29 18 Sur 39 Sur 0 -- -- 25
2020-09-13 14:00:00 28.6 21 Sur 36 Sur 0 -- -- 27
2020-09-13 13:00:00 27.3 24 Sur 38 Sur 0 -- -- 30
2020-09-13 12:00:00 26.1 23 Sur 38 Sur 0 -- -- 33
2020-09-13 11:00:00 25 20 Sur 41 Sudoeste 0 -- -- 36
2020-09-13 10:00:00 22.7 18 Sur 35 Sur 0 -- -- 42
2020-09-13 09:00:00 20.5 18 Sur 31 Sur 0 -- -- 47
2020-09-13 08:00:00 18.6 14 Sur 30 Sudeste 0 -- -- 53
2020-09-13 07:00:00 18.5 20 Sur 38 Sur 0 -- -- 56
2020-09-13 06:00:00 19 14 Sur 38 Sur 0 -- -- 53
2020-09-13 05:00:00 18.6 15 Sudeste 30 Sudeste 0 -- -- 55
2020-09-13 04:00:00 19.1 27 Sur 42 Sur 0 -- -- 53
2020-09-13 03:00:00 17 15 Sudeste 27 Sur 0 -- -- 53
2020-09-13 02:00:00 17.2 16 Sudeste 24 Sudeste 0 -- -- 53
2020-09-13 01:00:00 18.1 19 Sudeste 27 Sudeste 0 -- -- 53
2020-09-13 00:00:00 17.8 15 Sudeste 24 Sudeste 0 -- -- 55
2020-09-12 23:00:00 18.8 18 Sudeste 34 Este 0 -- -- 51
2020-09-12 22:00:00 21 23 Este 36 Este 0 -- -- 41
2020-09-12 21:00:00 20.7 9 Sudeste 11 Sudeste 0 -- -- 27
2020-09-12 20:00:00 25.8 8 Nordeste 17 Nordeste 0 -- -- 21
2020-09-12 19:00:00 28.1 9 Norte 17 Nordeste 0 -- -- 19
2020-09-12 18:00:00 28.1 10 Noroeste 21 Nordeste 0 -- -- 20
2020-09-12 17:00:00 28.2 12 Nordeste 22 Norte 0 -- -- 20
2020-09-12 16:00:00 27.5 10 Nordeste 22 Nordeste 0 -- -- 20
2020-09-12 15:00:00 27.1 8 Norte 24 Este 0 -- -- 20
2020-09-12 14:00:00 26.8 11 Nordeste 23 Sudeste 0 -- -- 20
2020-09-12 13:00:00 25.7 11 Nordeste 26 Este 0 -- -- 26
2020-09-12 12:00:00 25 14 Este 27 Sudeste 0 -- -- 30
2020-09-12 11:00:00 23.5 18 Sudeste 26 Este 0 -- -- 37
2020-09-12 10:00:00 21.3 16 Sudeste 26 Sudeste 0 -- -- 48
2020-09-12 09:00:00 15.6 9 Sudeste 13 Sudeste 0 -- -- 64
2020-09-12 08:00:00 10.9 11 Sudeste 17 Sudeste 0 -- -- 77
2020-09-12 07:00:00 12.6 12 Sudeste 17 Sudeste 0 -- -- 69
2020-09-12 06:00:00 12.7 13 Sudeste 17 Sudeste 0 -- -- 71
2020-09-12 05:00:00 12.3 10 Sudeste 17 Sudeste 0 -- -- 75
2020-09-12 04:00:00 13.7 14 Sudeste 16 Sudeste 0 -- -- 72
2020-09-12 03:00:00 14.3 10 Sudeste 17 Sudeste 0 -- -- 69
2020-09-12 02:00:00 15.3 11 Sudeste 19 Sudeste 0 -- -- 64
2020-09-12 01:00:00 16 11 Sur 21 Sudeste 0 -- -- 54
2020-09-12 00:00:00 17.4 15 Sudeste 20 Sudeste 0 -- -- 48
2020-09-11 23:00:00 17.3 12 Sudeste 16 Este 0 -- -- 38
2020-09-11 22:00:00 17.7 5 Norte 10 Norte 0 -- -- 34
2020-09-11 21:00:00 19.6 9 Norte 19 Norte 0 -- -- 29
2020-09-11 20:00:00 24.3 11 Noroeste 19 Noroeste 0 -- -- 23
2020-09-11 19:00:00 26.5 15 Noroeste 28 Noroeste 0 -- -- 22
2020-09-11 18:00:00 26.6 14 Norte 25 Noroeste 0 -- -- 22
2020-09-11 17:00:00 26.2 14 Noroeste 26 Noroeste 0 -- -- 24
2020-09-11 16:00:00 26.5 12 Noroeste 30 Norte 0 -- -- 24
2020-09-11 15:00:00 26.1 15 Noroeste 37 Noroeste 0 -- -- 25
2020-09-11 14:00:00 25.5 17 Noroeste 31 Noroeste 0 -- -- 26
2020-09-11 13:00:00 24.6 15 Noroeste 29 Noroeste 0 -- -- 29
2020-09-11 12:00:00 23.9 13 Noroeste 21 Noroeste 0 -- -- 30
2020-09-11 11:00:00 23.4 6 Noroeste 11 Noroeste 0 -- -- 34
2020-09-11 10:00:00 20.3 5 Este 9 Este 0 -- -- 40
2020-09-11 09:00:00 16.4 4 Sudeste 8 Sudeste 0 -- -- 49
2020-09-11 08:00:00 12.1 5 Sudeste 10 Sudeste 0 -- -- 59
2020-09-11 07:00:00 11.4 3 Sudeste 9 Sudeste 0 -- -- 62
2020-09-11 06:00:00 11.8 4 Sudeste 13 Sudeste 0 -- -- 62
2020-09-11 05:00:00 11.1 8 Sudeste 12 Sudeste 0 -- -- 66
2020-09-11 04:00:00 11.3 10 Sudeste 15 Sudeste 0 -- -- 65
2020-09-11 03:00:00 12.7 9 Sudeste 13 Este 0 -- -- 60
2020-09-11 02:00:00 13 11 Sudeste 13 Sudeste 0 -- -- 60
2020-09-11 01:00:00 14.4 8 Sudeste 15 Sudeste 0 -- -- 56
2020-09-11 00:00:00 16.1 11 Sudeste 15 Sur 0 -- -- 51
2020-09-10 23:00:00 17 10 Sudeste 21 Este 0 -- -- 47
2020-09-10 22:00:00 19.4 13 Este 21 Este 0 -- -- 40
2020-09-10 21:00:00 20.2 12 Norte 22 Noroeste 0 -- -- 37
2020-09-10 20:00:00 23.6 15 Noroeste 24 Noroeste 0 -- -- 32
2020-09-10 19:00:00 25.7 10 Nordeste 23 Norte 0 -- -- 30
2020-09-10 18:00:00 26.2 9 Noroeste 21 Norte 0 -- -- 30
2020-09-10 17:00:00 24.9 9 Norte 35 Nordeste 0 -- -- 34
2020-09-10 16:00:00 24.8 11 Norte 21 Norte 0 -- -- 34
2020-09-10 15:00:00 24.8 9 Este 21 Este 0 -- -- 33
2020-09-10 14:00:00 24.5 8 Sudeste 23 Este 0 -- -- 36
2020-09-10 13:00:00 23.4 12 Sudeste 23 Este 0 -- -- 39
2020-09-10 12:00:00 22.1 14 Este 24 Este 0 -- -- 43
2020-09-10 11:00:00 20.2 15 Este 27 Sudeste 0 -- -- 48
2020-09-10 10:00:00 19.5 9 Sudeste 16 Sudeste 0 -- -- 51
2020-09-10 09:00:00 15.4 8 Sudeste 14 Sudeste 0 -- -- 64
2020-09-10 08:00:00 10.7 10 Sudeste 13 Sudeste 0 -- -- 80
2020-09-10 07:00:00 9.9 9 Sudeste 14 Este 0 -- -- 81
2020-09-10 06:00:00 10.7 8 Sudeste 12 Este 0 -- -- 79
2020-09-10 05:00:00 11.4 6 Sudeste 19 Sudeste 0 -- -- 76
2020-09-10 04:00:00 12.1 9 Sudeste 19 Sudeste 0 -- -- 74
2020-09-10 03:00:00 13.1 11 Sudeste 19 Sudeste 0 -- -- 72
2020-09-10 02:00:00 13.1 9 Sudeste 17 Sudeste 0 -- -- 69
2020-09-10 01:00:00 15 12 Sudeste 20 Sudeste 0 -- -- 63
2020-09-10 00:00:00 16.3 10 Este 24 Sudeste 0 -- -- 52
2020-09-09 23:00:00 16.8 8 Este 13 Norte 0 -- -- 45
2020-09-09 22:00:00 19.1 12 Norte 20 Noroeste 0 -- -- 38
2020-09-09 21:00:00 21.2 12 Noroeste 16 Noroeste 0 -- -- 33
2020-09-09 20:00:00 23.9 8 Norte 17 Norte 0 -- -- 29
2020-09-09 19:00:00 25.5 8 Noroeste 19 Norte 0 -- -- 27
2020-09-09 18:00:00 25.6 12 Noroeste 21 Noroeste 0 -- -- 27
2020-09-09 17:00:00 24.5 5 Nordeste 22 Norte 0 -- -- 28
2020-09-09 16:00:00 24.7 11 Nordeste 22 Norte 0 -- -- 28
2020-09-09 15:00:00 24 8 Norte 27 Sudeste 0 -- -- 28
2020-09-09 14:00:00 23.9 12 Este 26 Sudeste 0 -- -- 28
2020-09-09 13:00:00 24.1 7 Norte 15 Noroeste 0 -- -- 28
2020-09-09 12:00:00 22.4 4 Nordeste 13 Norte 0 -- -- 31
2020-09-09 11:00:00 21.6 6 Noroeste 12 Noroeste 0 -- -- 33
2020-09-09 10:00:00 20.2 3 Este 9 Este 0 -- -- 37
2020-09-09 09:00:00 15.2 5 Sudeste 11 Este 0 -- -- 50
2020-09-09 08:00:00 11.2 3 Este 10 Sudeste 0 -- -- 58
2020-09-09 07:00:00 10.7 9 Sudeste 13 Sudeste 0 -- -- 60
2020-09-09 06:00:00 12.2 7 Sur 17 Sudeste 0 -- -- 56
2020-09-09 05:00:00 11 15 Sudeste 24 Este 0 -- -- 59
2020-09-09 04:00:00 11.5 15 Sudeste 21 Sudeste 0 -- -- 57
2020-09-09 03:00:00 11.1 13 Sudeste 17 Sudeste 0 -- -- 58
2020-09-09 02:00:00 14 14 Sudeste 22 Sudeste 0 -- -- 49
2020-09-09 01:00:00 14.5 18 Sudeste 31 Sudeste 0 -- -- 47
2020-09-09 00:00:00 14.9 17 Sudeste 22 Sudeste 0 -- -- 46
2020-09-08 23:00:00 14.5 17 Sudeste 28 Sudeste 0 -- -- 47
2020-09-08 22:00:00 15.8 16 Sudeste 21 Sudeste 0 -- -- 40
2020-09-08 21:00:00 16.3 11 Sudeste 23 Este 0 -- -- 35
2020-09-08 20:00:00 20.7 17 Este 31 Este 0 -- -- 27
2020-09-08 19:00:00 22.7 17 Este 31 Este 0 -- -- 25
2020-09-08 18:00:00 23.1 16 Sudeste 33 Este 0 -- -- 24
2020-09-08 17:00:00 22.6 16 Este 31 Sudeste 0 -- -- 26
2020-09-08 16:00:00 21.7 16 Este 40 Este 0 -- -- 30
2020-09-08 15:00:00 21.6 16 Sudeste 37 Sudeste 0 -- -- 29
2020-09-08 14:00:00 20.5 23 Este 38 Este 0 -- -- 29
2020-09-08 13:00:00 19.6 22 Sudeste 35 Este 0 -- -- 33
2020-09-08 12:00:00 17.6 21 Este 32 Este 0 -- -- 39
2020-09-08 11:00:00 16.8 16 Sudeste 31 Sudeste 0 -- -- 44
2020-09-08 10:00:00 13.9 21 Sudeste 30 Sudeste 0 -- -- 55
2020-09-08 09:00:00 11.1 14 Sudeste 23 Sudeste 0 -- -- 67
2020-09-08 08:00:00 7 10 Sudeste 26 Sudeste 0 -- -- 80
2020-09-08 07:00:00 7.2 17 Sudeste 24 Este 0 -- -- 81
2020-09-08 06:00:00 7.5 14 Sudeste 25 Sudeste 0 -- -- 77
2020-09-08 05:00:00 8.4 19 Sudeste 31 Sudeste 0 -- -- 72
2020-09-08 04:00:00 8.1 13 Sudeste 22 Sudeste 0 -- -- 72
2020-09-08 03:00:00 8.1 12 Sudeste 21 Sudeste 0 -- -- 70
2020-09-08 02:00:00 7.9 13 Sudeste 22 Sudeste 0 -- -- 65
2020-09-08 01:00:00 8.4 12 Sudeste 18 Sudeste 0 -- -- 60
2020-09-08 00:00:00 9.4 6 Sudeste 16 Sudeste 0 -- -- 55
2020-09-07 23:00:00 11.8 10 Sudeste 27 Este 0 -- -- 47
2020-09-07 22:00:00 14.1 17 Este 24 Nordeste 0 -- -- 41
2020-09-07 21:00:00 16.2 15 Nordeste 31 Nordeste 0 -- -- 39
2020-09-07 20:00:00 20 19 Norte 32 Norte 0 -- -- 30
2020-09-07 19:00:00 22.6 9 Norte 21 Norte 0 -- -- 28
2020-09-07 18:00:00 22.3 12 Norte 24 Norte 0 -- -- 28
2020-09-07 17:00:00 21.8 8 Oeste 23 Norte 0 -- -- 28
2020-09-07 16:00:00 20.6 7 Norte 22 Nordeste 0 -- -- 30
2020-09-07 15:00:00 19.3 7 Este 21 Nordeste 0 -- -- 33
2020-09-07 14:00:00 18.8 6 Norte 24 Nordeste 0 -- -- 37
2020-09-07 13:00:00 17.5 10 Nordeste 27 Nordeste 0 -- -- 42
2020-09-07 12:00:00 16.1 10 Nordeste 24 Este 0 -- -- 46
2020-09-07 11:00:00 15.3 6 Este 17 Este 0 -- -- 49
2020-09-07 10:00:00 13.1 8 Nordeste 15 Nordeste 0 -- -- 59
2020-09-07 09:00:00 11.7 0 Calma 8 Sudeste 0 -- -- 66
2020-09-07 08:00:00 6 5 Sudeste 12 Sudeste 0 -- -- 86
2020-09-07 07:00:00 5.7 8 Sudeste 10 Sudeste 0 -- -- 87
2020-09-07 06:00:00 5.9 8 Sudeste 12 Sudeste 0 -- -- 87
2020-09-07 05:00:00 6.9 8 Sudeste 12 Sudeste 0 -- -- 84
2020-09-07 04:00:00 7.6 8 Sudeste 12 Sudeste 0 -- -- 81
2020-09-07 03:00:00 8.4 5 Este 9 Sudeste 0 -- -- 76
2020-09-07 02:00:00 9.3 0 Calma 13 Oeste 0 -- -- 75
2020-09-07 01:00:00 11.7 11 Oeste 20 Oeste 0 -- -- 66
2020-09-07 00:00:00 12.6 10 Oeste 21 Noroeste 0 -- -- 63
2020-09-06 23:00:00 14.7 14 Oeste 20 Oeste 0 -- -- 54
2020-09-06 22:00:00 15.9 16 Noroeste 23 Noroeste 0 -- -- 50
2020-09-06 21:00:00 18.4 14 Noroeste 22 Noroeste 0 -- -- 47
2020-09-06 20:00:00 22.5 20 Noroeste 31 Noroeste 0 -- -- 41
2020-09-06 19:00:00 25 22 Noroeste 33 Norte 0 -- -- 33
2020-09-06 18:00:00 26.2 23 Noroeste 37 Noroeste 0 -- -- 34
2020-09-06 17:00:00 27.2 22 Noroeste 36 Noroeste 0 -- -- 33
2020-09-06 16:00:00 27.2 18 Noroeste 33 Noroeste 0 -- -- 35
2020-09-06 15:00:00 26.7 16 Norte 29 Noroeste 0 -- -- 37
2020-09-06 14:00:00 25.9 18 Norte 26 Noroeste 0 -- -- 39
2020-09-06 13:00:00 26 13 Noroeste 22 Noroeste 0 -- -- 38
2020-09-06 12:00:00 25.3 8 Noroeste 18 Oeste 0 -- -- 38
2020-09-06 11:00:00 23.9 0 Calma 9 Noroeste 0 -- -- 43
2020-09-06 10:00:00 17.1 5 Norte 13 Norte 0 -- -- 65
2020-09-06 09:00:00 17.3 0 Calma 5 Este 0 -- -- 57
2020-09-06 08:00:00 14 3 Sudeste 9 Sur 0 -- -- 67
2020-09-06 07:00:00 16.3 3 Sur 10 Sur 0 -- -- 60
2020-09-06 06:00:00 18.1 7 Sudoeste 26 Sur 0 -- -- 54
2020-09-06 05:00:00 18.7 13 Sur 25 Sur 0 -- -- 54
2020-09-06 04:00:00 17.7 12 Sudeste 30 Sudeste 0 -- -- 58
2020-09-06 03:00:00 15.3 10 Sudeste 18 Este 0 -- -- 72
2020-09-06 02:00:00 15.5 13 Sudeste 17 Este 0 -- -- 74
2020-09-06 01:00:00 16.4 9 Sudeste 16 Sudeste 0 -- -- 71
2020-09-06 00:00:00 17.8 9 Sudeste 21 Sudeste 0 -- -- 66
2020-09-05 23:00:00 19.4 15 Sudeste 28 Este 0 -- -- 62
2020-09-05 22:00:00 21.5 18 Este 29 Este 0 -- -- 54
2020-09-05 21:00:00 23.6 20 Este 35 Nordeste 0 -- -- 44
2020-09-05 20:00:00 28.3 6 Nordeste 19 Norte 0 -- -- 24
2020-09-05 19:00:00 28.3 12 Nordeste 19 Norte 0 -- -- 24
2020-09-05 18:00:00 30.1 8 Noroeste 25 Norte 0 -- -- 23
2020-09-05 17:00:00 29.6 7 Sudeste 23 Norte 0 -- -- 24
2020-09-05 16:00:00 29.1 12 Norte 26 Nordeste 0 -- -- 24
2020-09-05 15:00:00 28.9 10 Norte 20 Norte 0 -- -- 23
2020-09-05 14:00:00 28.7 6 Norte 18 Norte 0 -- -- 26
2020-09-05 13:00:00 28.7 4 Noroeste 15 Norte 0 -- -- 27
2020-09-05 12:00:00 26 6 Norte 14 Norte 0 -- -- 30
2020-09-05 11:00:00 25.1 5 Norte 10 Norte 0 -- -- 32
2020-09-05 10:00:00 23 5 Este 8 Este 0 -- -- 35
2020-09-05 09:00:00 19.7 0 Calma 6 Este 0 -- -- 43
2020-09-05 08:00:00 13.7 0 Calma 4 Sudeste 0 -- -- 55
2020-09-05 07:00:00 14.8 0 Calma 8 Sur 0 -- -- 51
2020-09-05 06:00:00 16.8 2 Sudeste 11 Sur 0 -- -- 46
2020-09-05 05:00:00 16.6 0 Calma 12 Sudoeste 0 -- -- 47
2020-09-05 04:00:00 16.7 6 Sur 13 Sur 0 -- -- 47
2020-09-05 03:00:00 17.2 8 Sur 12 Sudeste 0 -- -- 45
2020-09-05 02:00:00 21.1 10 Oeste 19 Oeste 0 -- -- 37
2020-09-05 01:00:00 21 11 Sudoeste 23 Sudoeste 0 -- -- 38
2020-09-05 00:00:00 20.9 7 Sudoeste 10 Oeste 0 -- -- 38
2020-09-04 23:00:00 22.3 5 Este 12 Sudeste 0 -- -- 35
2020-09-04 22:00:00 23.6 10 Sur 21 Sur 0 -- -- 32
2020-09-04 21:00:00 24.7 10 Sur 17 Sur 0 -- -- 30
2020-09-04 20:00:00 29.3 5 Norte 14 Nordeste 0 -- -- 27
2020-09-04 19:00:00 30.6 7 Norte 24 Norte 0 -- -- 25
2020-09-04 18:00:00 30.3 9 Nordeste 23 Noroeste 0 -- -- 26
2020-09-04 17:00:00 30.1 11 Noroeste 24 Este 0 -- -- 26
2020-09-04 16:00:00 29.1 10 Nordeste 23 Nordeste 0 -- -- 27
2020-09-04 15:00:00 28.7 13 Norte 24 Norte 0 -- -- 28
2020-09-04 14:00:00 28.6 13 Norte 26 Nordeste 0 -- -- 27
2020-09-04 13:00:00 27.4 13 Nordeste 28 Norte 0 -- -- 28
2020-09-04 12:00:00 26.6 12 Nordeste 17 Norte 0 -- -- 27
2020-09-04 11:00:00 26.8 4 Norte 9 Norte 0 -- -- 31
2020-09-04 10:00:00 23.5 4 Norte 7 Noroeste 0 -- -- 35
2020-09-04 09:00:00 21.9 0 Calma 11 Sudeste 0 -- -- 41
2020-09-04 08:00:00 15.1 11 Sudeste 13 Sudeste 0 -- -- 51
2020-09-04 07:00:00 15.1 9 Sudeste 12 Sudeste 0 -- -- 46
2020-09-04 06:00:00 17.3 6 Sudeste 23 Sur 0 -- -- 41
2020-09-04 05:00:00 20.1 14 Sur 29 Sur 0 -- -- 34
2020-09-04 04:00:00 18.5 16 Sur 31 Sur 0 -- -- 34
2020-09-04 03:00:00 16.8 11 Sur 19 Sur 0 -- -- 36
2020-09-04 02:00:00 16.3 7 Sudeste 14 Sudeste 0 -- -- 37
2020-09-04 01:00:00 16.1 9 Sudeste 17 Sudeste 0 -- -- 37
2020-09-04 00:00:00 17.1 7 Este 13 Este 0 -- -- 34
2020-09-03 23:00:00 20.3 9 Sur 13 Sur 0 -- -- 29
2020-09-03 22:00:00 20.7 9 Sur 15 Sur 0 -- -- 28
2020-09-03 21:00:00 22.7 2 Nordeste 11 Norte 0 -- -- 20
2020-09-03 20:00:00 26.9 12 Norte 19 Nordeste 0 -- -- 15
2020-09-03 19:00:00 28.8 9 Nordeste 16 Norte 0 -- -- 15
2020-09-03 18:00:00 28.6 9 Norte 22 Este 0 -- -- 16
2020-09-03 17:00:00 28.4 5 Este 20 Nordeste 0 -- -- 16
2020-09-03 16:00:00 27.9 7 Nordeste 18 Norte 0 -- -- 16
2020-09-03 15:00:00 26.6 8 Nordeste 19 Norte 0 -- -- 16
2020-09-03 14:00:00 26.9 8 Noroeste 19 Norte 0 -- -- 16
2020-09-03 13:00:00 25 12 Norte 18 Noroeste 0 -- -- 17
2020-09-03 12:00:00 24 10 Noroeste 17 Noroeste 0 -- -- 29
2020-09-03 11:00:00 24 3 Noroeste 12 Oeste 0 -- -- 28
2020-09-03 10:00:00 22.1 0 Calma 6 Este 0 -- -- 33
2020-09-03 09:00:00 15.7 2 Sudeste 5 Sudeste 0 -- -- 46
2020-09-03 08:00:00 9.2 4 Sur 14 Sur 0 -- -- 59
2020-09-03 07:00:00 9.7 5 Sur 8 Sur 0 -- -- 59
2020-09-03 06:00:00 9.3 3 Sudeste 8 Este 0 -- -- 62
2020-09-03 05:00:00 10.9 0 Calma 13 Sur 0 -- -- 56
2020-09-03 04:00:00 10.9 4 Sur 10 Sur 0 -- -- 56
2020-09-03 03:00:00 11.3 2 Noroeste 9 Sudeste 0 -- -- 56
2020-09-03 02:00:00 10.8 4 Sur 12 Sudeste 0 -- -- 57
2020-09-03 01:00:00 12.5 4 Sudeste 13 Sur 0 -- -- 53
2020-09-03 00:00:00 14.3 7 Sur 12 Sudeste 0 -- -- 46
2020-09-02 23:00:00 15.7 9 Sudoeste 11 Sudoeste 0 -- -- 44
2020-09-02 22:00:00 16.6 6 Noroeste 21 Norte 0 -- -- 40
2020-09-02 21:00:00 18.8 12 Norte 21 Noroeste 0 -- -- 35
2020-09-02 20:00:00 23.4 13 Noroeste 21 Norte 0 -- -- 26
2020-09-02 19:00:00 24.7 12 Noroeste 23 Norte 0 -- -- 25
2020-09-02 18:00:00 24.7 12 Norte 22 Noroeste 0 -- -- 24
2020-09-02 17:00:00 25 7 Oeste 21 Noroeste 0 -- -- 24
2020-09-02 16:00:00 23.7 11 Norte 20 Norte 0 -- -- 25
2020-09-02 15:00:00 23.1 6 Norte 21 Norte 0 -- -- 29
2020-09-02 14:00:00 22.4 9 Este 18 Nordeste 0 -- -- 31
2020-09-02 13:00:00 21.6 7 Este 22 Este 0 -- -- 33
2020-09-02 12:00:00 19.8 13 Este 26 Este 0 -- -- 39
2020-09-02 11:00:00 18.1 15 Este 28 Sudeste 0 -- -- 44
2020-09-02 10:00:00 16 19 Sudeste 27 Sudeste 0 -- -- 51
2020-09-02 09:00:00 13.6 17 Sudeste 23 Sudeste 0 -- -- 60
2020-09-02 08:00:00 9.8 15 Sudeste 23 Sudeste 0 -- -- 74
2020-09-02 07:00:00 10.1 16 Sudeste 24 Sudeste 0 -- -- 72
2020-09-02 06:00:00 10.1 15 Sudeste 26 Sudeste 0 -- -- 66
2020-09-02 05:00:00 10.8 18 Sudeste 30 Sudeste 0 -- -- 66
2020-09-02 04:00:00 8.8 14 Sudeste 17 Sudeste 0 -- -- 74
2020-09-02 03:00:00 9.4 10 Sudeste 18 Sudeste 0 -- -- 71
2020-09-02 02:00:00 11 10 Sudeste 19 Sudeste 0 -- -- 62
2020-09-02 01:00:00 12.5 12 Sur 21 Sudeste 0 -- -- 57
2020-09-02 00:00:00 13 15 Sudeste 25 Este 0 -- -- 52
2020-09-01 23:00:00 15.4 15 Este 26 Este 0 -- -- 43
2020-09-01 22:00:00 16.6 9 Este 25 Este 0 -- -- 39
2020-09-01 21:00:00 17.8 9 Norte 15 Noroeste 0 -- -- 33
2020-09-01 20:00:00 22.6 9 Norte 19 Noroeste 0 -- -- 25
2020-09-01 19:00:00 23.9 9 Noroeste 23 Norte 0 -- -- 24
2020-09-01 18:00:00 23.3 11 Oeste 22 Noroeste 0 -- -- 21
2020-09-01 17:00:00 23.6 9 Noroeste 30 Norte 0 -- -- 23
2020-09-01 16:00:00 23.4 7 Noroeste 25 Noroeste 0 -- -- 23
2020-09-01 15:00:00 22.3 8 Norte 23 Norte 0 -- -- 25
2020-09-01 14:00:00 21 10 Noroeste 20 Norte 0 -- -- 28
2020-09-01 13:00:00 21.9 10 Noroeste 18 Noroeste 0 -- -- 27
2020-09-01 12:00:00 20.7 4 Norte 9 Noroeste 0 -- -- 29
2020-09-01 11:00:00 18.9 3 Sur 5 Sur 0 -- -- 35
2020-09-01 10:00:00 14.4 4 Noroeste 9 Norte 0 -- -- 49
2020-09-01 09:00:00 13 8 Sudeste 12 Sudeste 0 -- -- 48
2020-09-01 08:00:00 11.3 2 Sudoeste 10 Nordeste 0 -- -- 50
2020-09-01 07:00:00 11.1 3 Noroeste 25 Este 0 -- -- 53
2020-09-01 06:00:00 11 3 Sudeste 4 Sudoeste 0 -- -- 50
2020-09-01 05:00:00 11.3 2 Sudeste 9 Sudeste 0 -- -- 49
2020-09-01 04:00:00 10.7 8 Sudeste 11 Sudeste 0 -- -- 51
2020-09-01 03:00:00 10.3 3 Sudeste 8 Sur 0 -- -- 50
2020-09-01 02:00:00 10.9 3 Sudeste 8 Sudeste 0 -- -- 48
2020-09-01 01:00:00 12.1 5 Sudeste 8 Sudeste 0 -- -- 43
2020-09-01 00:00:00 12.6 3 Sudeste 6 Sur 0 -- -- 43
2020-08-31 23:00:00 12.7 0 Calma 6 Sur 0 -- -- 43
2020-08-31 22:00:00 14.3 0 Calma 7 Norte 0 -- -- 38
2020-08-31 21:00:00 15.9 7 Norte 19 Norte 0 -- -- 35
2020-08-31 20:00:00 20.1 13 Norte 26 Noroeste 0 -- -- 28
2020-08-31 19:00:00 20.8 16 Oeste 28 Noroeste 0 -- -- 25
2020-08-31 18:00:00 22.3 17 Noroeste 28 Noroeste 0 -- -- 23
2020-08-31 17:00:00 21.8 10 Noroeste 28 Oeste 0 -- -- 26
2020-08-31 16:00:00 21.5 13 Oeste 29 Oeste 0 -- -- 25
2020-08-31 15:00:00 20 13 Noroeste 22 Noroeste 0 -- -- 29
2020-08-31 14:00:00 19.9 11 Norte 27 Noroeste 0 -- -- 26
2020-08-31 13:00:00 19.4 8 Noroeste 19 Oeste 0 -- -- 26
2020-08-31 12:00:00 17.9 5 Noroeste 14 Noroeste 0 -- -- 32
2020-08-31 11:00:00 16.3 5 Norte 12 Norte 0 -- -- 36
2020-08-31 10:00:00 16.5 3 Sudoeste 11 Sur 0 -- -- 41
2020-08-31 09:00:00 10 4 Sudeste 6 Sudeste 0 -- -- 69
2020-08-31 08:00:00 4.5 4 Este 12 Sudeste 0 -- -- 85
2020-08-31 07:00:00 4.1 7 Sudeste 10 Sudeste 0 -- -- 86
2020-08-31 06:00:00 4 5 Sudeste 11 Sudeste 0 -- -- 86
2020-08-31 05:00:00 4.8 5 Sudeste 13 Sudeste 0 -- -- 86
2020-08-31 04:00:00 3.6 11 Sudeste 13 Sudeste 0 -- -- 88
2020-08-31 03:00:00 4.9 3 Sudeste 14 Sudeste 0 -- -- 84
2020-08-31 02:00:00 6.1 7 Sudeste 13 Sudeste 0 -- -- 79
2020-08-31 01:00:00 7.5 8 Sur 13 Sudeste 0 -- -- 74
2020-08-31 00:00:00 7.8 9 Sudeste 10 Sudeste 0 -- -- 71
2020-08-30 23:00:00 9 0 Calma 11 Nordeste 0 -- -- 64
2020-08-30 22:00:00 9.8 7 Nordeste 16 Norte 0 -- -- 59
2020-08-30 21:00:00 11.5 6 Norte 21 Norte 0 -- -- 51
2020-08-30 20:00:00 14.5 13 Norte 26 Noroeste 0 -- -- 44
2020-08-30 19:00:00 14.5 11 Norte 22 Norte 0 -- -- 43
2020-08-30 18:00:00 16 14 Norte 24 Norte 0 -- -- 38
2020-08-30 17:00:00 16.6 13 Norte 33 Noroeste 0 -- -- 37
2020-08-30 16:00:00 16.6 17 Noroeste 27 Norte 0 -- -- 40
2020-08-30 15:00:00 16.6 12 Oeste 28 Norte 0 -- -- 39
2020-08-30 14:00:00 14.4 12 Noroeste 30 Noroeste 0 -- -- 47
2020-08-30 13:00:00 13.8 12 Norte 29 Nordeste 0 -- -- 53
2020-08-30 12:00:00 12.4 18 Norte 28 Norte 0 -- -- 57
2020-08-30 11:00:00 11.1 12 Noroeste 23 Noroeste 0 -- -- 71
2020-08-30 10:00:00 10.4 12 Noroeste 20 Noroeste 0 -- -- 74
2020-08-30 09:00:00 8.6 12 Oeste 17 Oeste 0 -- -- 81
2020-08-30 08:00:00 5.9 13 Noroeste 20 Oeste 0 -- -- 93
2020-08-30 07:00:00 5.3 15 Oeste 21 Oeste 0 -- -- 93
2020-08-30 06:00:00 5.4 14 Oeste 20 Noroeste 0 -- -- 93
2020-08-30 05:00:00 5.5 14 Oeste 19 Oeste 0 -- -- 91
2020-08-30 04:00:00 5.7 14 Oeste 18 Oeste 0 -- -- 88
2020-08-30 03:00:00 5.7 5 Sudoeste 28 Noroeste 0 -- -- 86
2020-08-30 02:00:00 6.3 18 Noroeste 31 Noroeste 0 -- -- 84
2020-08-30 01:00:00 6.9 21 Oeste 32 Oeste 0 -- -- 81
2020-08-30 00:00:00 7.6 16 Oeste 22 Oeste 0 -- -- 83
2020-08-29 23:00:00 8.1 13 Noroeste 20 Noroeste 0 -- -- 84
2020-08-29 22:00:00 9.6 13 Norte 26 Norte 0 -- -- 77
2020-08-29 21:00:00 11.1 24 Norte 35 Norte 0 -- -- 69
2020-08-29 20:00:00 12.3 4 Noroeste 24 Noroeste 0.2 -- -- 76
2020-08-29 19:00:00 13.5 7 Oeste 16 Norte 0.4 -- -- 71
2020-08-29 18:00:00 10.5 20 Norte 44 Norte 1.2 -- -- 82
2020-08-29 17:00:00 16.4 22 Noroeste 36 Norte 0 -- -- 42
2020-08-29 16:00:00 16.4 20 Noroeste 34 Noroeste 0 -- -- 42
2020-08-29 15:00:00 16 20 Noroeste 30 Noroeste 0 -- -- 45
2020-08-29 14:00:00 16.3 21 Noroeste 33 Noroeste 0 -- -- 44
2020-08-29 13:00:00 15.1 18 Norte 30 Noroeste 0 -- -- 48
2020-08-29 12:00:00 14.6 22 Norte 34 Noroeste 0 -- -- 49
2020-08-29 11:00:00 13.2 23 Norte 36 Noroeste 0 -- -- 57
2020-08-29 10:00:00 12.6 18 Norte 28 Noroeste 0 -- -- 58
2020-08-29 09:00:00 10.9 6 Oeste 13 Noroeste 0 -- -- 64
2020-08-29 08:00:00 7.4 9 Noroeste 15 Noroeste 0 -- -- 75
2020-08-29 07:00:00 7.1 11 Noroeste 18 Noroeste 0 -- -- 73
2020-08-29 06:00:00 8 10 Oeste 15 Oeste 0 -- -- 77
2020-08-29 05:00:00 9 14 Oeste 28 Noroeste 0 -- -- 76
2020-08-29 04:00:00 10.3 18 Noroeste 25 Oeste 0 -- -- 78
2020-08-29 03:00:00 11.7 9 Noroeste 17 Oeste 0 -- -- 76
2020-08-29 02:00:00 11.4 11 Oeste 18 Oeste 0 -- -- 80
2020-08-29 01:00:00 12.1 6 Sudeste 12 Este 0 -- -- 79
2020-08-29 00:00:00 13.1 8 Este 21 Este 0 -- -- 76
2020-08-28 23:00:00 15 12 Sudeste 21 Este 0 -- -- 67
2020-08-28 22:00:00 17.7 9 Nordeste 28 Noroeste 0 -- -- 48
2020-08-28 21:00:00 19.7 15 Noroeste 42 Oeste 0 -- -- 38
2020-08-28 20:00:00 23.2 31 Noroeste 47 Oeste 0 -- -- 26
2020-08-28 19:00:00 25.2 29 Oeste 45 Oeste 0 -- -- 30
2020-08-28 18:00:00 25.7 26 Oeste 41 Oeste 0 -- -- 35
2020-08-28 17:00:00 26 25 Noroeste 46 Oeste 0 -- -- 35
2020-08-28 16:00:00 25 30 Oeste 46 Oeste 0 -- -- 41
2020-08-28 15:00:00 24.4 31 Noroeste 46 Noroeste 0 -- -- 43
2020-08-28 14:00:00 23.2 33 Noroeste 47 Oeste 0 -- -- 48
2020-08-28 13:00:00 22 33 Noroeste 48 Oeste 0 -- -- 55
2020-08-28 12:00:00 21.5 27 Oeste 41 Oeste 0 -- -- 55
2020-08-28 11:00:00 20.3 28 Oeste 39 Oeste 0 -- -- 58
2020-08-28 10:00:00 19.2 20 Oeste 32 Oeste 0 -- -- 62
2020-08-28 09:00:00 18.1 26 Oeste 34 Oeste 0 -- -- 65
2020-08-28 08:00:00 17.8 21 Oeste 34 Oeste 0 -- -- 67
2020-08-28 07:00:00 17.9 21 Oeste 40 Oeste 0 -- -- 64
2020-08-28 06:00:00 18.4 23 Oeste 33 Oeste 0 -- -- 58
2020-08-28 05:00:00 19 13 Oeste 27 Oeste 0 -- -- 54
2020-08-28 04:00:00 19.2 17 Oeste 24 Oeste 0 -- -- 49
2020-08-28 03:00:00 18 8 Oeste 10 Oeste 0 -- -- 47
2020-08-28 02:00:00 18.7 2 Oeste 7 Sudeste 0 -- -- 46
2020-08-28 01:00:00 19.8 0 Calma 9 Sudoeste 0 -- -- 43
2020-08-28 00:00:00 20.8 5 Sudoeste 13 Noroeste 0 -- -- 41
2020-08-27 23:00:00 22.7 9 Noroeste 18 Noroeste 0 -- -- 37
2020-08-27 22:00:00 23.6 5 Oeste 15 Noroeste 0 -- -- 35
2020-08-27 21:00:00 25.3 12 Noroeste 21 Noroeste 0 -- -- 30
2020-08-27 20:00:00 29.3 14 Noroeste 27 Noroeste 0 -- -- 25
2020-08-27 19:00:00 30.7 19 Noroeste 33 Noroeste 0 -- -- 25
2020-08-27 18:00:00 30.9 24 Noroeste 35 Noroeste 0 -- -- 24
2020-08-27 17:00:00 31 15 Noroeste 33 Oeste 0 -- -- 24
2020-08-27 16:00:00 30.8 20 Noroeste 37 Noroeste 0 -- -- 24
2020-08-27 15:00:00 30.2 14 Oeste 34 Noroeste 0 -- -- 28
2020-08-27 14:00:00 29.7 17 Noroeste 35 Oeste 0 -- -- 31
2020-08-27 13:00:00 28.8 19 Oeste 31 Noroeste 0 -- -- 32
2020-08-27 12:00:00 27.4 21 Noroeste 28 Oeste 0 -- -- 38
2020-08-27 11:00:00 25.8 9 Norte 14 Norte 0 -- -- 34
2020-08-27 10:00:00 26.4 3 Norte 7 Este 0 -- -- 36
2020-08-27 09:00:00 22.6 2 Sudeste 13 Sur 0 -- -- 44
2020-08-27 08:00:00 16.3 11 Sur 14 Sur 0 -- -- 57
2020-08-27 07:00:00 15.7 0 Calma 9 Sudeste 0 -- -- 60
2020-08-27 06:00:00 16.6 4 Sudeste 9 Sur 0 -- -- 56
2020-08-27 05:00:00 16.4 0 Calma 8 Sudeste 0 -- -- 57
2020-08-27 04:00:00 17.7 5 Sudeste 9 Sur 0 -- -- 54
2020-08-27 03:00:00 17.8 4 Sudeste 11 Sur 0 -- -- 52
2020-08-27 02:00:00 19.1 9 Sur 15 Sur 0 -- -- 46
2020-08-27 01:00:00 19 10 Sudeste 14 Este 0 -- -- 52
2020-08-27 00:00:00 21.3 2 Este 17 Este 0 -- -- 38
2020-08-26 23:00:00 22.3 0 Calma 8 Oeste 0 -- -- 37
2020-08-26 22:00:00 23.4 4 Oeste 8 Noroeste 0 -- -- 35
2020-08-26 21:00:00 25.6 7 Noroeste 19 Norte 0 -- -- 32
2020-08-26 20:00:00 29.9 15 Norte 26 Noroeste 0 -- -- 25
2020-08-26 19:00:00 32.2 10 Noroeste 30 Noroeste 0 -- -- 22
2020-08-26 18:00:00 32.3 17 Noroeste 31 Noroeste 0 -- -- 21
2020-08-26 17:00:00 32.5 15 Oeste 32 Oeste 0 -- -- 22
2020-08-26 16:00:00 32.2 17 Noroeste 37 Oeste 0 -- -- 22
2020-08-26 15:00:00 31.8 18 Noroeste 37 Noroeste 0 -- -- 22
2020-08-26 14:00:00 30.5 19 Noroeste 33 Oeste 0 -- -- 23
2020-08-26 13:00:00 30.2 8 Oeste 18 Oeste 0 -- -- 23
2020-08-26 12:00:00 28.3 8 Noroeste 16 Oeste 0 -- -- 28
2020-08-26 11:00:00 26.2 8 Noroeste 13 Noroeste 0 -- -- 32
2020-08-26 10:00:00 25.4 4 Oeste 6 Oeste 0 -- -- 30
2020-08-26 09:00:00 21.4 2 Sudeste 7 Sudeste 0 -- -- 41
2020-08-26 08:00:00 15.7 4 Sudeste 19 Sudeste 0 -- -- 52
2020-08-26 07:00:00 15.9 11 Sur 15 Sur 0 -- -- 50
2020-08-26 06:00:00 15.5 0 Calma 12 Sur 0 -- -- 51
2020-08-26 05:00:00 17.1 11 Sur 15 Sur 0 -- -- 46
2020-08-26 04:00:00 17 3 Sudeste 10 Sur 0 -- -- 46
2020-08-26 03:00:00 17.2 3 Sudeste 12 Sudeste 0 -- -- 44
2020-08-26 02:00:00 18.3 4 Este 8 Sudeste 0 -- -- 42
2020-08-26 01:00:00 20.5 3 Sudeste 7 Sudeste 0 -- -- 37
2020-08-26 00:00:00 21 3 Sudeste 8 Este 0 -- -- 35
2020-08-25 23:00:00 21.7 0 Calma 8 Sur 0 -- -- 35
2020-08-25 22:00:00 24.7 3 Sudeste 11 Oeste 0 -- -- 29
2020-08-25 21:00:00 26.2 10 Noroeste 18 Noroeste 0 -- -- 27
2020-08-25 20:00:00 30.5 13 Noroeste 26 Noroeste 0 -- -- 21
2020-08-25 19:00:00 31.8 17 Noroeste 29 Oeste 0 -- -- 19
2020-08-25 18:00:00 32 19 Noroeste 37 Oeste 0 -- -- 18
2020-08-25 17:00:00 31.8 19 Oeste 40 Oeste 0 -- -- 20
2020-08-25 16:00:00 31.5 9 Noroeste 35 Oeste 0 -- -- 21
2020-08-25 15:00:00 30.6 18 Noroeste 33 Noroeste 0 -- -- 23
2020-08-25 14:00:00 30.6 9 Noroeste 26 Noroeste 0 -- -- 24
2020-08-25 13:00:00 29.2 13 Noroeste 32 Norte 0 -- -- 27
2020-08-25 12:00:00 28.5 9 Noroeste 15 Oeste 0 -- -- 27
2020-08-25 11:00:00 28.3 5 Noroeste 12 Noroeste 0 -- -- 27
2020-08-25 10:00:00 25.4 8 Sur 12 Sur 0 -- -- 35
2020-08-25 09:00:00 22.6 6 Sudeste 12 Sudeste 0 -- -- 41
2020-08-25 08:00:00 16.4 7 Sur 9 Sur 0 -- -- 55
2020-08-25 07:00:00 14.9 0 Calma 8 Sur 0 -- -- 54
2020-08-25 06:00:00 15.1 5 Sudeste 11 Este 0 -- -- 54
2020-08-25 05:00:00 15 6 Sudeste 10 Sudeste 0 -- -- 54
2020-08-25 04:00:00 14.7 7 Sudeste 15 Sur 0 -- -- 56
2020-08-25 03:00:00 15.6 5 Sudeste 8 Sur 0 -- -- 51
2020-08-25 02:00:00 17 2 Sudeste 5 Sur 0 -- -- 47
2020-08-25 01:00:00 16.8 4 Sudeste 9 Sudeste 0 -- -- 49
2020-08-25 00:00:00 18.1 4 Sudeste 10 Sur 0 -- -- 48
2020-08-24 23:00:00 18.7 6 Sudeste 10 Sur 0 -- -- 47
2020-08-24 22:00:00 20.7 5 Sudeste 6 Sur 0 -- -- 41
2020-08-24 21:00:00 22.7 5 Norte 20 Norte 0 -- -- 37
2020-08-24 20:00:00 26.7 13 Norte 23 Noroeste 0 -- -- 29
2020-08-24 19:00:00 28.3 16 Noroeste 32 Noroeste 0 -- -- 26
2020-08-24 18:00:00 28.9 13 Oeste 24 Oeste 0 -- -- 27
2020-08-24 17:00:00 28.3 12 Norte 22 Noroeste 0 -- -- 26
2020-08-24 16:00:00 28.1 7 Noroeste 24 Norte 0 -- -- 27
2020-08-24 15:00:00 27.2 13 Noroeste 31 Norte 0 -- -- 31
2020-08-24 14:00:00 26.4 7 Noroeste 21 Nordeste 0 -- -- 35
2020-08-24 13:00:00 25.6 9 Nordeste 20 Norte 0 -- -- 36
2020-08-24 12:00:00 24.4 8 Norte 13 Norte 0 -- -- 36
2020-08-24 11:00:00 23 9 Este 19 Este 0 -- -- 42
2020-08-24 10:00:00 19.6 15 Este 19 Este 0 -- -- 50
2020-08-24 09:00:00 16.4 10 Sudeste 16 Sudeste 0 -- -- 62
2020-08-24 08:00:00 13.3 6 Sudeste 14 Sudeste 0 -- -- 71
2020-08-24 07:00:00 10.7 11 Sudeste 22 Sudeste 0 -- -- 82
2020-08-24 06:00:00 14.3 19 Sudeste 24 Sudeste 0 -- -- 65
2020-08-24 05:00:00 12.1 13 Sudeste 18 Sudeste 0 -- -- 75
2020-08-24 04:00:00 12.7 13 Sudeste 17 Sudeste 0 -- -- 72
2020-08-24 03:00:00 12.8 13 Sudeste 16 Sudeste 0 -- -- 72
2020-08-24 02:00:00 13 12 Sudeste 18 Este 0 -- -- 68
2020-08-24 01:00:00 13.7 12 Sudeste 19 Sudeste 0 -- -- 62
2020-08-24 00:00:00 16.1 6 Sur 9 Sudoeste 0 -- -- 49
2020-08-23 23:00:00 17.7 7 Sudoeste 13 Noroeste 0 -- -- 45
2020-08-23 22:00:00 18.6 10 Noroeste 15 Noroeste 0 -- -- 40
2020-08-23 21:00:00 21.4 9 Noroeste 16 Norte 0 -- -- 34
2020-08-23 20:00:00 26.1 12 Norte 20 Norte 0 -- -- 26
2020-08-23 19:00:00 27.5 10 Noroeste 18 Noroeste 0 -- -- 25
2020-08-23 18:00:00 27.4 12 Nordeste 27 Norte 0 -- -- 23
2020-08-23 17:00:00 26.8 10 Norte 20 Noroeste 0 -- -- 23
2020-08-23 16:00:00 25.9 6 Norte 18 Norte 0 -- -- 27
2020-08-23 15:00:00 25.8 6 Este 28 Noroeste 0 -- -- 30
2020-08-23 14:00:00 24.5 6 Nordeste 19 Norte 0 -- -- 28
2020-08-23 13:00:00 23.8 8 Norte 24 Nordeste 0 -- -- 37
2020-08-23 12:00:00 23 8 Nordeste 15 Nordeste 0 -- -- 38
2020-08-23 11:00:00 22.9 3 Norte 9 Este 0 -- -- 44
2020-08-23 10:00:00 18.7 8 Este 13 Este 0 -- -- 61
2020-08-23 09:00:00 15.1 9 Sudeste 15 Sudeste 0 -- -- 75
2020-08-23 08:00:00 10.6 10 Sudeste 15 Este 0 -- -- 82
2020-08-23 07:00:00 10.3 10 Sudeste 13 Sudeste 0 -- -- 72
2020-08-23 06:00:00 9.6 6 Sudeste 14 Sudeste 0 -- -- 76
2020-08-23 05:00:00 11.6 0 Calma 6 Sudeste 0 -- -- 63
2020-08-23 04:00:00 12 3 Sudeste 5 Sudeste 0 -- -- 63
2020-08-23 03:00:00 13.7 0 Calma 8 Oeste 0 -- -- 53
2020-08-23 02:00:00 14.3 4 Sudoeste 14 Sudoeste 0 -- -- 53
2020-08-23 01:00:00 16.2 10 Sudoeste 14 Oeste 0 -- -- 48
2020-08-23 00:00:00 16.9 5 Noroeste 12 Oeste 0 -- -- 48
2020-08-22 23:00:00 18.7 11 Oeste 14 Oeste 0 -- -- 42
2020-08-22 22:00:00 19.2 8 Noroeste 10 Noroeste 0 -- -- 46
2020-08-22 21:00:00 21.3 7 Norte 19 Norte 0 -- -- 41
2020-08-22 20:00:00 25.5 14 Noroeste 27 Noroeste 0 -- -- 30
2020-08-22 19:00:00 27.5 15 Noroeste 26 Noroeste 0 -- -- 23
2020-08-22 18:00:00 27.5 17 Noroeste 31 Noroeste 0 -- -- 24
2020-08-22 17:00:00 27 17 Noroeste 32 Noroeste 0 -- -- 31
2020-08-22 16:00:00 26.4 12 Oeste 24 Oeste 0 -- -- 37
2020-08-22 15:00:00 24.6 10 Noroeste 20 Oeste 0 -- -- 41
2020-08-22 14:00:00 24 11 Noroeste 30 Norte 0 -- -- 47
2020-08-22 13:00:00 22.7 8 Noroeste 15 Norte 0 -- -- 50
2020-08-22 12:00:00 21.5 10 Noroeste 18 Norte 0 -- -- 57
2020-08-22 11:00:00 21.1 5 Noroeste 13 Oeste 0 -- -- 54
2020-08-22 10:00:00 18.6 10 Oeste 14 Oeste 0 -- -- 60
2020-08-22 09:00:00 18.7 2 Sudeste 13 Sudoeste 0 -- -- 58
2020-08-22 08:00:00 14.6 4 Oeste 14 Oeste 0 -- -- 73
2020-08-22 07:00:00 12.7 4 Oeste 8 Oeste 0 -- -- 81
2020-08-22 06:00:00 13.8 3 Sudeste 17 Oeste 0 -- -- 76
2020-08-22 05:00:00 14.6 13 Oeste 20 Oeste 0 -- -- 75
2020-08-22 04:00:00 14.9 10 Oeste 15 Oeste 0 -- -- 74
2020-08-22 03:00:00 15.8 10 Oeste 13 Oeste 0 -- -- 76
2020-08-22 02:00:00 16.1 0 Calma 15 Noroeste 0 -- -- 76
2020-08-22 01:00:00 18 14 Noroeste 20 Noroeste 0 -- -- 88
2020-08-22 00:00:00 18.4 5 Oeste 9 Oeste 0 -- -- 92
2020-08-21 23:00:00 18.8 6 Noroeste 10 Oeste 0.2 -- -- 91
2020-08-21 22:00:00 18.9 6 Noroeste 11 Noroeste 0.2 -- -- 88
2020-08-21 21:00:00 19.4 8 Noroeste 11 Noroeste 0 -- -- 87
2020-08-21 20:00:00 19.9 6 Oeste 13 Noroeste 0.2 -- -- 90
2020-08-21 19:00:00 18.1 4 Noroeste 53 Oeste 12 -- -- 94
2020-08-21 18:00:00 22.2 18 Noroeste 39 Noroeste 0.4 -- -- 71
2020-08-21 17:00:00 27.5 18 Oeste 28 Oeste 0 -- -- 41
2020-08-21 16:00:00 29 17 Oeste 33 Oeste 0 -- -- 37
2020-08-21 15:00:00 29.1 10 Noroeste 27 Oeste 0 -- -- 35
2020-08-21 14:00:00 28.8 10 Noroeste 22 Noroeste 0 -- -- 38
2020-08-21 13:00:00 27.4 9 Oeste 18 Noroeste 0 -- -- 41
2020-08-21 12:00:00 25.4 10 Oeste 18 Noroeste 0 -- -- 44
2020-08-21 11:00:00 24 10 Noroeste 18 Noroeste 0 -- -- 52
2020-08-21 10:00:00 24.7 0 Calma 10 Este 0 -- -- 45
2020-08-21 09:00:00 19.8 5 Sudeste 11 Sudeste 0 -- -- 72
2020-08-21 08:00:00 15.6 8 Sudeste 14 Este 0 -- -- 92
2020-08-21 07:00:00 14.6 10 Este 20 Este 0 -- -- 96
2020-08-21 06:00:00 13.5 5 Este 12 Sudeste 0 -- -- 93
2020-08-21 05:00:00 14.5 5 Sudeste 9 Sudeste 0 -- -- 91
2020-08-21 04:00:00 15.2 5 Este 11 Noroeste 0 -- -- 89
2020-08-21 03:00:00 16.4 9 Noroeste 21 Noroeste 0 -- -- 87
2020-08-21 02:00:00 17 11 Noroeste 21 Noroeste 0 -- -- 83
2020-08-21 01:00:00 18.4 17 Noroeste 26 Norte 0 -- -- 60
2020-08-21 00:00:00 20.7 13 Oeste 20 Noroeste 0 -- -- 28